createdAt,value
2023-05-07T00:00:09.766Z,7.40
2023-05-07T00:02:38.592Z,11.37
2023-05-07T00:05:08.629Z,10.03
2023-05-07T00:07:37.472Z,9.50
2023-05-07T00:10:07.801Z,8.87
2023-05-07T00:12:37.352Z,8.33
2023-05-07T00:15:07.565Z,9.40
2023-05-07T00:17:38.499Z,6.53
2023-05-07T00:20:07.655Z,5.57
2023-05-07T00:22:35.932Z,6.20
2023-05-07T00:25:04.262Z,4.57
2023-05-07T00:27:32.504Z,7.17
2023-05-07T00:30:02.117Z,5.57
2023-05-07T00:32:31.285Z,5.33
2023-05-07T00:34:59.414Z,5.17
2023-05-07T00:37:29.118Z,7.03
2023-05-07T00:39:57.342Z,7.50
2023-05-07T00:42:25.459Z,5.60
2023-05-07T00:44:53.847Z,9.20
2023-05-07T00:47:23.856Z,5.13
2023-05-07T00:49:52.633Z,5.33
2023-05-07T00:52:23.998Z,5.83
2023-05-07T00:54:52.372Z,5.13
2023-05-07T00:57:23.621Z,5.17
2023-05-07T00:59:53.025Z,5.33
2023-05-07T01:02:21.246Z,6.53
2023-05-07T01:04:51.179Z,6.37
2023-05-07T01:07:19.641Z,7.40
2023-05-07T01:09:47.920Z,6.70
2023-05-07T01:12:16.502Z,8.00
2023-05-07T01:14:45.254Z,9.77
2023-05-07T01:17:13.740Z,6.43
2023-05-07T01:19:41.892Z,8.57
2023-05-07T01:22:13.588Z,10.33
2023-05-07T01:24:44.831Z,9.23
2023-05-07T01:27:13.507Z,5.83
2023-05-07T01:29:42.121Z,7.57
2023-05-07T01:32:10.675Z,9.23
2023-05-07T01:34:39.927Z,9.90
2023-05-07T01:37:09.995Z,9.20
2023-05-07T01:39:41.360Z,10.37
2023-05-07T01:42:11.039Z,7.80
2023-05-07T01:44:39.508Z,8.40
2023-05-07T01:47:09.778Z,8.43
2023-05-07T01:49:39.593Z,7.43
2023-05-07T01:52:07.913Z,7.07
2023-05-07T01:54:36.161Z,8.83
2023-05-07T01:57:04.359Z,7.97
2023-05-07T01:59:35.665Z,8.50
2023-05-07T02:02:04.084Z,8.80
2023-05-07T02:04:32.247Z,8.33
2023-05-07T02:07:01.332Z,9.93
2023-05-07T02:09:29.706Z,7.80
2023-05-07T02:11:57.829Z,8.83
2023-05-07T02:14:27.283Z,10.00
2023-05-07T02:16:57.410Z,9.37
2023-05-07T02:19:26.253Z,10.90
2023-05-07T02:21:54.242Z,9.00
2023-05-07T02:24:22.737Z,10.63
2023-05-07T02:26:50.890Z,8.73
2023-05-07T02:29:18.773Z,8.97
2023-05-07T02:31:48.491Z,9.70
2023-05-07T02:34:20.263Z,9.30
2023-05-07T02:36:48.702Z,8.83
2023-05-07T02:39:17.692Z,8.70
2023-05-07T02:41:47.153Z,14.70
2023-05-07T02:44:15.672Z,11.03
2023-05-07T02:46:43.773Z,10.90
2023-05-07T02:49:13.332Z,14.40
2023-05-07T02:51:43.275Z,11.83
2023-05-07T02:54:11.634Z,12.20
2023-05-07T02:56:40.266Z,12.90
2023-05-07T02:59:08.949Z,12.90
2023-05-07T03:01:37.280Z,12.17
2023-05-07T03:04:06.004Z,12.73
2023-05-07T03:06:34.415Z,13.53
2023-05-07T03:09:04.225Z,16.10
2023-05-07T03:11:32.317Z,13.47
2023-05-07T03:14:00.305Z,11.63
2023-05-07T03:16:28.374Z,14.87
2023-05-07T03:18:56.927Z,13.20
2023-05-07T03:21:26.922Z,15.60
2023-05-07T03:23:55.197Z,16.50
2023-05-07T03:26:25.320Z,15.27
2023-05-07T03:28:53.410Z,16.17
2023-05-07T03:31:25.073Z,14.30
2023-05-07T03:33:54.994Z,16.37
2023-05-07T03:36:23.724Z,17.40
2023-05-07T03:38:52.478Z,15.97
2023-05-07T03:41:21.757Z,17.00
2023-05-07T03:43:51.750Z,16.17
2023-05-07T03:46:20.239Z,14.50
2023-05-07T03:48:48.421Z,14.67
2023-05-07T03:51:17.263Z,13.30
2023-05-07T03:53:45.409Z,13.67
2023-05-07T03:56:14.107Z,15.33
2023-05-07T03:58:42.186Z,17.20
2023-05-07T04:01:11.838Z,15.37
2023-05-07T04:03:40.150Z,15.07
2023-05-07T04:06:08.740Z,13.50
2023-05-07T04:08:36.881Z,13.43
2023-05-07T04:11:05.123Z,14.47
2023-05-07T04:13:33.160Z,15.03
2023-05-07T04:16:03.521Z,15.13
2023-05-07T04:18:34.623Z,16.27
2023-05-07T04:21:02.945Z,18.53
2023-05-07T04:23:31.391Z,15.50
2023-05-07T04:25:59.580Z,17.10
2023-05-07T04:28:27.812Z,13.73
2023-05-07T04:30:56.210Z,17.33
2023-05-07T04:33:24.678Z,15.63
2023-05-07T04:35:54.729Z,15.80
2023-05-07T04:38:24.807Z,12.93
2023-05-07T04:40:53.014Z,15.63
2023-05-07T04:43:21.843Z,12.17
2023-05-07T04:45:50.885Z,13.53
2023-05-07T04:48:21.608Z,15.50
2023-05-07T04:50:50.606Z,13.50
2023-05-07T04:53:23.196Z,11.87
2023-05-07T04:55:51.330Z,9.43
2023-05-07T04:58:19.525Z,11.37
2023-05-07T05:00:47.902Z,13.67
2023-05-07T05:03:16.004Z,12.83
2023-05-07T05:05:44.138Z,11.03
2023-05-07T05:08:12.393Z,11.10
2023-05-07T05:10:44.495Z,11.33
2023-05-07T05:13:14.047Z,13.17
2023-05-07T05:15:42.234Z,11.53
2023-05-07T05:18:10.475Z,11.17
2023-05-07T05:20:38.738Z,11.23
2023-05-07T05:23:09.633Z,8.90
2023-05-07T05:25:40.525Z,12.83
2023-05-07T05:28:09.961Z,14.30
2023-05-07T05:30:38.017Z,11.10
2023-05-07T05:33:06.464Z,10.57
2023-05-07T05:35:36.075Z,11.80
2023-05-07T05:38:04.829Z,12.97
2023-05-07T05:40:33.243Z,9.60
2023-05-07T05:43:01.575Z,11.17
2023-05-07T05:45:31.654Z,10.80
2023-05-07T05:48:00.023Z,10.17
2023-05-07T05:50:28.381Z,17.37
2023-05-07T05:52:56.336Z,9.53
2023-05-07T05:55:25.432Z,12.30
2023-05-07T05:57:53.572Z,10.37
2023-05-07T06:00:23.657Z,10.17
2023-05-07T06:02:55.008Z,11.03
2023-05-07T06:05:23.438Z,9.13
2023-05-07T06:07:51.573Z,14.03
2023-05-07T06:10:20.485Z,10.53
2023-05-07T06:12:48.823Z,10.07
2023-05-07T06:15:16.987Z,10.33
2023-05-07T06:17:46.683Z,10.87
2023-05-07T06:20:16.619Z,11.10
2023-05-07T06:22:45.906Z,12.50
2023-05-07T06:25:14.322Z,11.13
2023-05-07T06:27:42.901Z,10.80
2023-05-07T06:30:11.866Z,10.30
2023-05-07T06:32:41.416Z,9.90
2023-05-07T06:35:10.518Z,9.33
2023-05-07T06:37:40.842Z,9.83
2023-05-07T06:40:10.380Z,9.90
2023-05-07T06:42:39.123Z,8.47
2023-05-07T06:45:09.683Z,9.17
2023-05-07T06:47:37.769Z,8.83
2023-05-07T06:50:06.632Z,11.10
2023-05-07T06:52:35.726Z,10.43
2023-05-07T06:55:07.648Z,12.33
2023-05-07T06:57:36.387Z,11.07
2023-05-07T07:00:05.465Z,11.03
2023-05-07T07:02:33.818Z,11.63
2023-05-07T07:05:04.517Z,11.27
2023-05-07T07:07:32.846Z,9.47
2023-05-07T07:10:01.436Z,11.47
2023-05-07T07:12:31.223Z,10.60
2023-05-07T07:14:59.299Z,8.77
2023-05-07T07:17:27.611Z,12.77
2023-05-07T07:19:56.164Z,9.97
2023-05-07T07:22:24.522Z,10.00
2023-05-07T07:24:54.064Z,9.17
2023-05-07T07:27:22.597Z,8.07
2023-05-07T07:29:52.231Z,9.30
2023-05-07T07:32:21.028Z,11.10
2023-05-07T07:34:49.015Z,9.47
2023-05-07T07:37:17.157Z,9.40
2023-05-07T07:39:45.489Z,11.40
2023-05-07T07:42:13.772Z,9.90
2023-05-07T07:44:42.604Z,11.90
2023-05-07T07:47:12.663Z,12.47
2023-05-07T07:49:40.916Z,10.10
2023-05-07T07:52:09.236Z,9.93
2023-05-07T07:54:37.322Z,12.67
2023-05-07T07:57:05.558Z,11.00
2023-05-07T07:59:33.583Z,10.43
2023-05-07T08:02:02.391Z,9.30
2023-05-07T08:04:34.281Z,9.83
2023-05-07T08:07:02.987Z,8.97
2023-05-07T08:09:32.818Z,10.13
2023-05-07T08:12:01.203Z,13.60
2023-05-07T08:14:30.264Z,10.37
2023-05-07T08:16:58.446Z,9.33
2023-05-07T08:19:26.666Z,10.20
2023-05-07T08:21:58.241Z,13.83
2023-05-07T08:24:26.540Z,11.93
2023-05-07T08:26:54.634Z,10.13
2023-05-07T08:29:22.571Z,9.47
2023-05-07T08:31:52.096Z,10.83
2023-05-07T08:34:20.731Z,9.57
2023-05-07T08:36:49.881Z,9.53
2023-05-07T08:39:20.444Z,9.13
2023-05-07T08:41:50.532Z,8.63
2023-05-07T08:44:22.649Z,7.60
2023-05-07T08:46:57.809Z,8.33
2023-05-07T08:49:26.024Z,10.00
2023-05-07T08:51:54.284Z,9.10
2023-05-07T08:54:24.517Z,6.80
2023-05-07T08:56:53.185Z,8.43
2023-05-07T08:59:21.780Z,5.20
2023-05-07T09:01:51.350Z,5.73
2023-05-07T09:04:19.956Z,5.53
2023-05-07T09:06:49.213Z,5.00
2023-05-07T09:09:21.525Z,7.13
2023-05-07T09:11:52.025Z,5.40
2023-05-07T09:14:23.917Z,3.00
2023-05-07T09:16:54.189Z,4.93
2023-05-07T09:19:25.181Z,5.07
2023-05-07T09:22:04.903Z,5.53
2023-05-07T09:24:36.081Z,5.73
2023-05-07T09:27:06.135Z,5.33
2023-05-07T09:29:37.056Z,6.47
2023-05-07T09:32:07.815Z,7.13
2023-05-07T09:34:37.300Z,4.20
2023-05-07T09:37:08.520Z,10.67
2023-05-07T09:39:43.910Z,5.70
2023-05-07T09:42:16.107Z,14.97
2023-05-07T09:44:46.172Z,5.85
2023-05-07T09:47:21.252Z,5.45
2023-05-07T09:49:50.959Z,7.63
2023-05-07T09:52:19.829Z,6.80
2023-05-07T09:54:49.653Z,6.47
2023-05-07T09:57:21.772Z,7.20
2023-05-07T09:59:52.158Z,4.68
2023-05-07T10:02:22.969Z,6.65
2023-05-07T10:04:51.484Z,6.63
2023-05-07T10:07:21.273Z,4.23
2023-05-07T10:09:49.802Z,4.80
2023-05-07T10:12:20.931Z,3.97
2023-05-07T10:14:50.504Z,3.90
2023-05-07T10:17:19.740Z,3.77
2023-05-07T10:19:48.354Z,5.70
2023-05-07T10:22:18.469Z,5.37
2023-05-07T10:24:50.800Z,6.63
2023-05-07T10:27:21.989Z,3.63
2023-05-07T10:30:02.012Z,4.43
2023-05-07T10:32:40.424Z,5.17
2023-05-07T10:35:14.070Z,6.55
2023-05-07T10:37:43.772Z,6.07
2023-05-07T10:40:13.885Z,5.22
2023-05-07T10:42:57.949Z,4.07
2023-05-07T10:45:27.661Z,6.63
2023-05-07T10:48:29.763Z,6.85
2023-05-07T10:51:23.015Z,4.82
2023-05-07T10:53:51.459Z,5.20
2023-05-07T10:56:30.246Z,3.58
2023-05-07T10:59:33.435Z,3.53
2023-05-07T11:02:04.110Z,3.60
2023-05-07T11:04:36.196Z,3.25
2023-05-07T11:07:38.843Z,3.80
2023-05-07T11:10:09.070Z,3.28
2023-05-07T11:12:53.555Z,3.50
2023-05-07T11:15:53.720Z,4.32
2023-05-07T11:18:22.017Z,3.60
2023-05-07T11:21:02.543Z,3.40
2023-05-07T11:24:01.572Z,3.53
2023-05-07T11:26:32.330Z,3.87
2023-05-07T11:29:01.678Z,2.90
2023-05-07T11:31:31.917Z,5.47
2023-05-07T11:34:01.825Z,4.38
2023-05-07T11:36:35.163Z,4.87
2023-05-07T11:39:03.863Z,5.00
2023-05-07T11:41:38.994Z,4.28
2023-05-07T11:44:07.262Z,4.43
2023-05-07T11:46:36.997Z,3.10
2023-05-07T11:49:05.778Z,3.83
2023-05-07T11:51:34.310Z,3.60
2023-05-07T11:54:02.595Z,3.92
2023-05-07T11:56:30.593Z,4.25
2023-05-07T11:59:01.295Z,4.22
2023-05-07T12:01:29.391Z,4.63
2023-05-07T12:03:59.388Z,4.90
2023-05-07T12:06:28.228Z,5.82
2023-05-07T12:08:56.900Z,4.55
2023-05-07T12:11:27.122Z,3.88
2023-05-07T12:13:59.783Z,3.72
2023-05-07T12:16:29.818Z,5.10
2023-05-07T12:19:00.088Z,5.85
2023-05-07T12:21:28.143Z,4.55
2023-05-07T12:23:57.294Z,4.32
2023-05-07T12:26:27.023Z,4.30
2023-05-07T12:28:55.440Z,4.43
2023-05-07T12:31:23.800Z,4.60
2023-05-07T12:33:52.510Z,4.25
2023-05-07T12:36:22.535Z,3.50
2023-05-07T12:38:52.507Z,3.83
2023-05-07T12:41:27.013Z,5.55
2023-05-07T12:43:58.874Z,4.60
2023-05-07T12:46:26.941Z,3.65
2023-05-07T12:48:56.238Z,3.80
2023-05-07T12:51:27.354Z,4.07
2023-05-07T12:53:58.395Z,4.00
2023-05-07T12:56:26.544Z,3.33
2023-05-07T12:58:59.932Z,3.10
2023-05-07T13:01:31.977Z,4.68
2023-05-07T13:04:04.597Z,2.90
2023-05-07T13:06:34.293Z,3.53
2023-05-07T13:09:02.435Z,4.55
2023-05-07T13:11:30.604Z,2.78
2023-05-07T13:13:58.864Z,3.10
2023-05-07T13:16:27.448Z,3.08
2023-05-07T13:18:55.458Z,3.13
2023-05-07T13:21:23.724Z,2.70
2023-05-07T13:23:53.319Z,2.42
2023-05-07T13:26:26.827Z,3.15
2023-05-07T13:28:56.597Z,4.13
2023-05-07T13:31:25.469Z,4.65
2023-05-07T13:33:57.533Z,2.88
2023-05-07T13:36:26.491Z,2.72
2023-05-07T13:38:56.038Z,4.18
2023-05-07T13:41:24.014Z,2.60
2023-05-07T13:43:53.640Z,2.40
2023-05-07T13:46:21.900Z,3.00
2023-05-07T13:48:52.214Z,2.30
2023-05-07T13:51:20.734Z,2.50
2023-05-07T13:53:48.682Z,3.42
2023-05-07T13:56:18.324Z,2.80
2023-05-07T13:58:58.896Z,4.60
2023-05-07T14:01:28.706Z,2.90
2023-05-07T14:03:58.196Z,2.95
2023-05-07T14:06:26.186Z,3.63
2023-05-07T14:08:54.878Z,3.15
2023-05-07T14:11:27.031Z,4.07
2023-05-07T14:13:54.962Z,2.20
2023-05-07T14:16:23.021Z,3.17
2023-05-07T14:18:51.758Z,2.90
2023-05-07T14:21:21.262Z,3.88
2023-05-07T14:23:49.852Z,3.30
2023-05-07T14:26:18.134Z,2.70
2023-05-07T14:28:48.076Z,2.58
2023-05-07T14:31:16.012Z,2.70
2023-05-07T14:33:44.499Z,2.95
2023-05-07T14:36:16.400Z,4.03
2023-05-07T14:38:44.534Z,3.05
2023-05-07T14:41:12.623Z,4.05
2023-05-07T14:43:40.944Z,5.22
2023-05-07T14:46:10.916Z,4.82
2023-05-07T14:48:40.445Z,2.80
2023-05-07T14:51:08.682Z,2.70
2023-05-07T14:53:36.691Z,4.25
2023-05-07T14:56:05.526Z,4.72
2023-05-07T14:58:36.976Z,2.90
2023-05-07T15:01:06.856Z,6.78
2023-05-07T15:03:38.588Z,2.95
2023-05-07T15:06:07.285Z,2.70
2023-05-07T15:08:35.629Z,3.03
2023-05-07T15:11:05.126Z,2.80
2023-05-07T15:13:33.109Z,6.07
2023-05-07T15:16:01.117Z,3.90
2023-05-07T15:18:29.440Z,3.00
2023-05-07T15:21:00.122Z,3.92
2023-05-07T15:23:28.500Z,2.83
2023-05-07T15:25:57.542Z,3.03
2023-05-07T15:28:26.484Z,3.85
2023-05-07T15:30:56.213Z,3.58
2023-05-07T15:33:26.112Z,2.83
2023-05-07T15:35:54.972Z,2.78
2023-05-07T15:38:24.760Z,2.92
2023-05-07T15:40:52.818Z,4.78
2023-05-07T15:43:21.215Z,5.10
2023-05-07T15:45:50.684Z,5.05
2023-05-07T15:48:18.812Z,3.25
2023-05-07T15:50:48.116Z,3.70
2023-05-07T15:53:16.685Z,2.88
2023-05-07T15:55:47.148Z,2.90
2023-05-07T15:58:20.384Z,3.10
2023-05-07T16:00:50.437Z,3.22
2023-05-07T16:03:19.109Z,2.67
2023-05-07T16:05:47.976Z,6.90
2023-05-07T16:08:16.407Z,3.15
2023-05-07T16:10:46.733Z,3.25
2023-05-07T16:13:15.110Z,4.47
2023-05-07T16:15:43.564Z,2.67
2023-05-07T16:18:12.515Z,2.90
2023-05-07T16:20:40.895Z,3.08
2023-05-07T16:23:09.843Z,3.22
2023-05-07T16:25:38.925Z,3.95
2023-05-07T16:28:08.839Z,2.75
2023-05-07T16:30:36.770Z,3.42
2023-05-07T16:33:04.907Z,4.07
2023-05-07T16:35:34.973Z,2.90
2023-05-07T16:38:10.368Z,3.05
2023-05-07T16:40:40.666Z,3.40
2023-05-07T16:43:10.949Z,4.03
2023-05-07T16:45:41.354Z,3.30
2023-05-07T16:48:10.581Z,5.00
2023-05-07T16:50:41.615Z,3.73
2023-05-07T16:53:09.932Z,2.90
2023-05-07T16:55:39.071Z,3.40
2023-05-07T16:58:08.548Z,3.20
2023-05-07T17:00:50.106Z,4.40
2023-05-07T17:03:19.461Z,3.33
2023-05-07T17:05:48.149Z,3.23
2023-05-07T17:08:16.722Z,4.50
2023-05-07T17:10:48.600Z,4.57
2023-05-07T17:13:16.683Z,2.83
2023-05-07T17:15:47.806Z,7.23
2023-05-07T17:18:16.168Z,3.70
2023-05-07T17:20:44.702Z,4.60
2023-05-07T17:23:13.476Z,3.50
2023-05-07T17:25:45.614Z,5.70
2023-05-07T17:28:14.086Z,3.97
2023-05-07T17:30:42.423Z,5.83
2023-05-07T17:33:20.755Z,7.97
2023-05-07T17:35:49.938Z,6.10
2023-05-07T17:38:18.246Z,5.00
2023-05-07T17:40:46.467Z,5.97
2023-05-07T17:43:14.393Z,5.43
2023-05-07T17:45:43.068Z,15.43
2023-05-07T17:48:12.782Z,5.03
2023-05-07T17:50:41.878Z,4.00
2023-05-07T17:53:10.191Z,8.87
2023-05-07T17:55:43.729Z,4.33
2023-05-07T17:58:12.653Z,4.33
2023-05-07T18:00:40.854Z,7.53
2023-05-07T18:03:09.406Z,5.40
2023-05-07T18:05:39.950Z,7.33
2023-05-07T18:08:08.355Z,4.80
2023-05-07T18:10:36.525Z,5.47
2023-05-07T18:13:05.218Z,4.47
2023-05-07T18:15:33.251Z,5.33
2023-05-07T18:18:02.331Z,4.73
2023-05-07T18:20:31.689Z,5.33
2023-05-07T18:23:01.295Z,5.17
2023-05-07T18:25:29.552Z,4.00
2023-05-07T18:27:58.001Z,4.63
2023-05-07T18:30:25.950Z,6.00
2023-05-07T18:32:54.315Z,4.73
2023-05-07T18:35:22.338Z,5.10
2023-05-07T18:37:52.738Z,4.77
2023-05-07T18:40:24.430Z,4.03
2023-05-07T18:42:52.516Z,6.03
2023-05-07T18:45:21.188Z,5.53
2023-05-07T18:47:49.486Z,5.53
2023-05-07T18:50:18.283Z,8.73
2023-05-07T18:52:46.582Z,4.97
2023-05-07T18:55:14.934Z,5.00
2023-05-07T18:57:45.088Z,5.90
2023-05-07T19:00:14.731Z,4.87
2023-05-07T19:02:44.446Z,7.43
2023-05-07T19:05:13.093Z,5.20
2023-05-07T19:07:41.125Z,7.63
2023-05-07T19:10:10.450Z,4.63
2023-05-07T19:12:38.520Z,5.23
2023-05-07T19:15:09.620Z,6.10
2023-05-07T19:17:37.839Z,6.47
2023-05-07T19:22:37.200Z,5.17
2023-05-07T19:25:06.354Z,7.17
2023-05-07T19:27:35.343Z,5.97
2023-05-07T19:30:03.737Z,17.17
2023-05-07T19:32:34.165Z,6.43
2023-05-07T19:35:02.894Z,5.53
2023-05-07T19:37:30.872Z,13.80
2023-05-07T19:40:05.046Z,9.57
2023-05-07T19:42:33.866Z,6.70
2023-05-07T19:45:04.759Z,7.00
2023-05-07T19:47:34.757Z,7.40
2023-05-07T19:50:02.807Z,8.33
2023-05-07T19:52:31.176Z,8.90
2023-05-07T19:54:59.710Z,6.20
2023-05-07T19:57:27.991Z,7.17
2023-05-07T19:59:56.275Z,5.40
2023-05-07T20:02:24.740Z,5.27
2023-05-07T20:05:00.571Z,4.60
2023-05-07T20:07:31.054Z,5.83
2023-05-07T20:09:59.355Z,9.07
2023-05-07T20:12:27.347Z,7.97
2023-05-07T20:14:55.491Z,6.23
2023-05-07T20:17:23.708Z,5.47
2023-05-07T20:19:53.831Z,5.57
2023-05-07T20:22:23.782Z,6.37
2023-05-07T20:24:51.977Z,5.63
2023-05-07T20:27:25.124Z,7.00
2023-05-07T20:29:53.224Z,5.40
2023-05-07T20:32:21.384Z,6.87
2023-05-07T20:34:52.507Z,6.43
2023-05-07T20:37:22.566Z,6.03
2023-05-07T20:39:52.123Z,9.40
2023-05-07T20:42:20.388Z,6.17
2023-05-07T20:44:48.534Z,7.53
2023-05-07T20:47:16.811Z,5.43
2023-05-07T20:49:45.355Z,5.27
2023-05-07T20:52:13.561Z,4.67
2023-05-07T20:54:44.625Z,7.80
2023-05-07T20:57:12.746Z,5.27
2023-05-07T20:59:43.602Z,5.67
2023-05-07T21:02:13.324Z,8.27
2023-05-07T21:04:41.398Z,9.57
2023-05-07T21:07:09.772Z,6.53
2023-05-07T21:09:38.260Z,4.87
2023-05-07T21:12:08.646Z,4.47
2023-05-07T21:14:37.574Z,4.27
2023-05-07T21:17:07.380Z,5.53
2023-05-07T21:19:35.685Z,8.03
2023-05-07T21:22:04.793Z,4.30
2023-05-07T21:24:34.713Z,4.03
2023-05-07T21:27:03.115Z,5.93
2023-05-07T21:29:32.510Z,4.40
2023-05-07T21:32:00.733Z,5.27
2023-05-07T21:34:29.006Z,5.23
2023-05-07T21:36:56.900Z,4.53
2023-05-07T21:39:25.294Z,4.43
2023-05-07T21:41:53.312Z,4.30
2023-05-07T21:44:21.784Z,4.03
2023-05-07T21:46:51.824Z,3.77
2023-05-07T21:49:19.858Z,9.00
2023-05-07T21:51:47.734Z,3.80
2023-05-07T21:54:16.507Z,4.20
2023-05-07T21:56:47.188Z,3.50
2023-05-07T21:59:16.860Z,6.13
2023-05-07T22:01:45.175Z,4.30
2023-05-07T22:04:15.240Z,5.93
2023-05-07T22:06:43.543Z,3.77
2023-05-07T22:09:12.652Z,4.03
2023-05-07T22:11:40.742Z,3.37
2023-05-07T22:14:08.778Z,4.13
2023-05-07T22:16:36.884Z,3.33
2023-05-07T22:19:05.589Z,4.47
2023-05-07T22:21:35.593Z,2.80
2023-05-07T22:24:07.240Z,5.90
2023-05-07T22:26:35.357Z,3.90
2023-05-07T22:29:05.180Z,3.20
2023-05-07T22:31:33.858Z,3.97
2023-05-07T22:34:03.057Z,7.50
2023-05-07T22:36:31.399Z,3.97
2023-05-07T22:39:03.194Z,8.13
2023-05-07T22:41:31.816Z,3.20
2023-05-07T22:44:00.731Z,3.90
2023-05-07T22:46:28.970Z,3.77
2023-05-07T22:48:57.209Z,3.33
2023-05-07T22:51:25.478Z,5.03
2023-05-07T22:53:53.594Z,2.53
2023-05-07T22:56:23.410Z,3.43
2023-05-07T22:58:51.680Z,3.83
2023-05-07T23:01:19.969Z,3.47
2023-05-07T23:03:48.270Z,2.63
2023-05-07T23:06:16.235Z,3.47
2023-05-07T23:08:44.686Z,4.53
2023-05-07T23:11:12.876Z,2.90
2023-05-07T23:13:44.700Z,3.00
2023-05-07T23:16:13.056Z,5.57
2023-05-07T23:18:41.650Z,2.80
2023-05-07T23:21:10.081Z,2.80
2023-05-07T23:23:38.589Z,3.53
2023-05-07T23:26:07.087Z,2.73
2023-05-07T23:28:35.174Z,4.40
2023-05-07T23:31:07.801Z,5.10
2023-05-07T23:33:36.165Z,6.03
2023-05-07T23:36:07.573Z,5.13
2023-05-07T23:38:37.083Z,2.40
2023-05-07T23:41:05.332Z,3.50
2023-05-07T23:43:34.931Z,4.83
2023-05-07T23:46:05.300Z,3.07
2023-05-07T23:48:33.760Z,2.73
2023-05-07T23:51:01.897Z,2.73
2023-05-07T23:53:30.375Z,4.13
2023-05-07T23:55:58.525Z,3.27
2023-05-07T23:58:26.689Z,4.80
